sensor_id;sensor_type;location;lat;lon;timestamp;P1;durP1;ratioP1;P2;durP2;ratioP2
11211;SDS011;5663;50.864;12.096;2023-07-31T00:00:58;5.87;;;2.10;;
11211;SDS011;5663;50.864;12.096;2023-07-31T00:03:26;3.30;;;1.73;;
11211;SDS011;5663;50.864;12.096;2023-07-31T00:05:55;5.80;;;1.87;;
11211;SDS011;5663;50.864;12.096;2023-07-31T00:08:26;5.43;;;2.43;;
11211;SDS011;5663;50.864;12.096;2023-07-31T00:11:00;5.20;;;2.23;;
11211;SDS011;5663;50.864;12.096;2023-07-31T00:13:30;3.33;;;1.80;;
11211;SDS011;5663;50.864;12.096;2023-07-31T00:15:59;4.33;;;1.90;;
11211;SDS011;5663;50.864;12.096;2023-07-31T00:18:32;4.07;;;2.20;;
11211;SDS011;5663;50.864;12.096;2023-07-31T00:21:20;4.90;;;2.13;;
11211;SDS011;5663;50.864;12.096;2023-07-31T00:23:52;3.40;;;1.80;;
11211;SDS011;5663;50.864;12.096;2023-07-31T00:26:28;5.30;;;2.00;;
11211;SDS011;5663;50.864;12.096;2023-07-31T00:29:42;3.70;;;1.90;;
11211;SDS011;5663;50.864;12.096;2023-07-31T00:42:20;3.93;;;1.77;;
11211;SDS011;5663;50.864;12.096;2023-07-31T00:45:01;2.47;;;1.80;;
11211;SDS011;5663;50.864;12.096;2023-07-31T00:47:31;2.50;;;1.93;;
11211;SDS011;5663;50.864;12.096;2023-07-31T00:50:11;5.63;;;2.10;;
11211;SDS011;5663;50.864;12.096;2023-07-31T00:52:39;3.77;;;1.90;;
11211;SDS011;5663;50.864;12.096;2023-07-31T00:58:40;5.50;;;2.10;;
11211;SDS011;5663;50.864;12.096;2023-07-31T01:01:08;7.10;;;2.33;;
11211;SDS011;5663;50.864;12.096;2023-07-31T01:03:48;2.80;;;1.97;;
11211;SDS011;5663;50.864;12.096;2023-07-31T01:07:04;4.10;;;1.83;;
11211;SDS011;5663;50.864;12.096;2023-07-31T01:09:45;3.73;;;1.83;;
11211;SDS011;5663;50.864;12.096;2023-07-31T01:12:33;3.73;;;1.80;;
11211;SDS011;5663;50.864;12.096;2023-07-31T01:15:32;7.30;;;2.30;;
11211;SDS011;5663;50.864;12.096;2023-07-31T01:18:11;3.57;;;1.87;;
11211;SDS011;5663;50.864;12.096;2023-07-31T01:20:48;5.53;;;2.13;;
11211;SDS011;5663;50.864;12.096;2023-07-31T01:23:31;3.33;;;2.17;;
11211;SDS011;5663;50.864;12.096;2023-07-31T01:26:18;3.00;;;1.70;;
11211;SDS011;5663;50.864;12.096;2023-07-31T01:28:55;6.80;;;1.77;;
11211;SDS011;5663;50.864;12.096;2023-07-31T01:31:24;5.07;;;2.00;;
11211;SDS011;5663;50.864;12.096;2023-07-31T01:33:54;5.53;;;2.27;;
11211;SDS011;5663;50.864;12.096;2023-07-31T01:36:24;2.93;;;2.00;;
11211;SDS011;5663;50.864;12.096;2023-07-31T01:38:54;4.77;;;2.13;;
11211;SDS011;5663;50.864;12.096;2023-07-31T01:41:26;10.13;;;2.37;;
11211;SDS011;5663;50.864;12.096;2023-07-31T01:43:54;5.03;;;2.07;;
11211;SDS011;5663;50.864;12.096;2023-07-31T01:46:22;3.40;;;1.97;;
11211;SDS011;5663;50.864;12.096;2023-07-31T01:48:51;5.07;;;1.90;;
11211;SDS011;5663;50.864;12.096;2023-07-31T01:51:19;2.70;;;1.90;;
11211;SDS011;5663;50.864;12.096;2023-07-31T01:53:47;4.20;;;2.30;;
11211;SDS011;5663;50.864;12.096;2023-07-31T01:56:15;7.13;;;2.40;;
11211;SDS011;5663;50.864;12.096;2023-07-31T01:58:44;6.53;;;2.30;;
11211;SDS011;5663;50.864;12.096;2023-07-31T02:01:27;4.20;;;2.17;;
11211;SDS011;5663;50.864;12.096;2023-07-31T02:03:55;7.33;;;2.83;;
11211;SDS011;5663;50.864;12.096;2023-07-31T02:06:23;5.23;;;2.10;;
11211;SDS011;5663;50.864;12.096;2023-07-31T02:08:51;5.27;;;2.23;;
11211;SDS011;5663;50.864;12.096;2023-07-31T02:14:30;3.83;;;2.10;;
11211;SDS011;5663;50.864;12.096;2023-07-31T02:17:19;4.67;;;2.30;;
11211;SDS011;5663;50.864;12.096;2023-07-31T02:19:47;6.73;;;2.53;;
11211;SDS011;5663;50.864;12.096;2023-07-31T02:22:16;3.30;;;1.90;;
11211;SDS011;5663;50.864;12.096;2023-07-31T02:24:44;5.27;;;2.23;;
11211;SDS011;5663;50.864;12.096;2023-07-31T02:27:19;4.13;;;2.30;;
11211;SDS011;5663;50.864;12.096;2023-07-31T02:32:54;5.53;;;2.20;;
11211;SDS011;5663;50.864;12.096;2023-07-31T02:35:24;5.00;;;2.40;;
11211;SDS011;5663;50.864;12.096;2023-07-31T02:38:06;5.77;;;2.27;;
11211;SDS011;5663;50.864;12.096;2023-07-31T02:40:42;3.10;;;2.17;;
11211;SDS011;5663;50.864;12.096;2023-07-31T02:43:31;5.30;;;2.50;;
11211;SDS011;5663;50.864;12.096;2023-07-31T02:46:05;9.60;;;2.50;;
11211;SDS011;5663;50.864;12.096;2023-07-31T02:48:36;7.13;;;2.30;;
11211;SDS011;5663;50.864;12.096;2023-07-31T02:51:04;3.93;;;2.53;;
11211;SDS011;5663;50.864;12.096;2023-07-31T02:53:33;5.53;;;2.37;;
11211;SDS011;5663;50.864;12.096;2023-07-31T02:56:01;5.93;;;2.63;;
11211;SDS011;5663;50.864;12.096;2023-07-31T02:58:29;5.37;;;2.50;;
11211;SDS011;5663;50.864;12.096;2023-07-31T03:00:57;5.03;;;2.70;;
11211;SDS011;5663;50.864;12.096;2023-07-31T03:03:27;5.27;;;2.20;;
11211;SDS011;5663;50.864;12.096;2023-07-31T03:06:32;6.80;;;2.63;;
11211;SDS011;5663;50.864;12.096;2023-07-31T03:09:05;4.87;;;2.57;;
11211;SDS011;5663;50.864;12.096;2023-07-31T03:11:50;4.93;;;2.43;;
11211;SDS011;5663;50.864;12.096;2023-07-31T03:14:20;8.53;;;2.50;;
11211;SDS011;5663;50.864;12.096;2023-07-31T03:16:49;5.10;;;2.80;;
11211;SDS011;5663;50.864;12.096;2023-07-31T03:19:18;5.43;;;2.77;;
11211;SDS011;5663;50.864;12.096;2023-07-31T03:21:54;4.37;;;2.47;;
11211;SDS011;5663;50.864;12.096;2023-07-31T03:24:23;5.83;;;2.57;;
11211;SDS011;5663;50.864;12.096;2023-07-31T03:26:51;3.23;;;2.20;;
11211;SDS011;5663;50.864;12.096;2023-07-31T03:29:22;5.07;;;2.40;;
11211;SDS011;5663;50.864;12.096;2023-07-31T03:32:10;3.40;;;2.10;;
11211;SDS011;5663;50.864;12.096;2023-07-31T03:34:45;7.00;;;2.90;;
11211;SDS011;5663;50.864;12.096;2023-07-31T03:37:18;4.17;;;2.23;;
11211;SDS011;5663;50.864;12.096;2023-07-31T03:39:52;6.33;;;2.30;;
11211;SDS011;5663;50.864;12.096;2023-07-31T03:42:44;3.50;;;2.60;;
11211;SDS011;5663;50.864;12.096;2023-07-31T03:45:25;6.03;;;2.50;;
11211;SDS011;5663;50.864;12.096;2023-07-31T03:48:00;4.40;;;2.90;;
11211;SDS011;5663;50.864;12.096;2023-07-31T03:50:38;6.97;;;2.70;;
11211;SDS011;5663;50.864;12.096;2023-07-31T03:53:12;7.57;;;2.80;;
11211;SDS011;5663;50.864;12.096;2023-07-31T03:58:35;6.17;;;2.57;;
11211;SDS011;5663;50.864;12.096;2023-07-31T04:01:03;5.03;;;2.60;;
11211;SDS011;5663;50.864;12.096;2023-07-31T04:03:31;6.53;;;2.63;;
11211;SDS011;5663;50.864;12.096;2023-07-31T04:05:59;3.37;;;2.13;;
11211;SDS011;5663;50.864;12.096;2023-07-31T04:08:37;4.37;;;2.33;;
11211;SDS011;5663;50.864;12.096;2023-07-31T04:11:45;6.03;;;2.40;;
11211;SDS011;5663;50.864;12.096;2023-07-31T04:14:18;7.93;;;2.70;;
11211;SDS011;5663;50.864;12.096;2023-07-31T04:16:47;5.80;;;2.93;;
11211;SDS011;5663;50.864;12.096;2023-07-31T04:21:58;5.50;;;2.70;;
11211;SDS011;5663;50.864;12.096;2023-07-31T04:24:46;6.93;;;2.77;;
11211;SDS011;5663;50.864;12.096;2023-07-31T04:27:19;4.13;;;2.30;;
11211;SDS011;5663;50.864;12.096;2023-07-31T04:30:15;4.83;;;2.73;;
11211;SDS011;5663;50.864;12.096;2023-07-31T04:36:18;3.97;;;2.50;;
11211;SDS011;5663;50.864;12.096;2023-07-31T04:42:14;8.10;;;2.80;;
11211;SDS011;5663;50.864;12.096;2023-07-31T04:47:56;3.57;;;2.40;;
11211;SDS011;5663;50.864;12.096;2023-07-31T04:50:43;4.03;;;1.93;;
11211;SDS011;5663;50.864;12.096;2023-07-31T04:53:15;7.80;;;2.60;;
11211;SDS011;5663;50.864;12.096;2023-07-31T04:56:02;6.00;;;2.70;;
11211;SDS011;5663;50.864;12.096;2023-07-31T05:01:36;3.93;;;2.43;;
11211;SDS011;5663;50.864;12.096;2023-07-31T05:04:48;3.60;;;2.20;;
11211;SDS011;5663;50.864;12.096;2023-07-31T05:07:33;5.83;;;2.30;;
11211;SDS011;5663;50.864;12.096;2023-07-31T05:10:40;4.17;;;2.40;;
11211;SDS011;5663;50.864;12.096;2023-07-31T05:17:16;6.03;;;3.00;;
11211;SDS011;5663;50.864;12.096;2023-07-31T05:20:11;6.33;;;2.70;;
11211;SDS011;5663;50.864;12.096;2023-07-31T05:23:06;6.27;;;2.97;;
11211;SDS011;5663;50.864;12.096;2023-07-31T05:26:05;10.50;;;2.67;;
11211;SDS011;5663;50.864;12.096;2023-07-31T05:29:24;8.97;;;3.00;;
11211;SDS011;5663;50.864;12.096;2023-07-31T05:32:26;5.57;;;2.83;;
11211;SDS011;5663;50.864;12.096;2023-07-31T06:11:14;6.23;;;3.03;;
11211;SDS011;5663;50.864;12.096;2023-07-31T06:40:57;5.10;;;2.47;;
11211;SDS011;5663;50.864;12.096;2023-07-31T06:43:35;6.00;;;2.60;;
11211;SDS011;5663;50.864;12.096;2023-07-31T06:46:17;7.20;;;2.83;;
11211;SDS011;5663;50.864;12.096;2023-07-31T06:53:33;6.40;;;2.77;;
11211;SDS011;5663;50.864;12.096;2023-07-31T07:04:37;5.90;;;2.97;;
11211;SDS011;5663;50.864;12.096;2023-07-31T07:07:06;3.70;;;2.60;;
11211;SDS011;5663;50.864;12.096;2023-07-31T07:09:36;6.20;;;2.60;;
11211;SDS011;5663;50.864;12.096;2023-07-31T07:12:06;6.43;;;2.57;;
11211;SDS011;5663;50.864;12.096;2023-07-31T07:14:34;7.60;;;3.07;;
11211;SDS011;5663;50.864;12.096;2023-07-31T07:17:04;6.67;;;3.00;;
11211;SDS011;5663;50.864;12.096;2023-07-31T07:19:54;5.40;;;2.90;;
11211;SDS011;5663;50.864;12.096;2023-07-31T07:22:23;4.97;;;2.87;;
11211;SDS011;5663;50.864;12.096;2023-07-31T07:24:52;7.97;;;2.77;;
11211;SDS011;5663;50.864;12.096;2023-07-31T07:27:39;3.97;;;2.43;;
11211;SDS011;5663;50.864;12.096;2023-07-31T07:30:08;4.47;;;2.50;;
11211;SDS011;5663;50.864;12.096;2023-07-31T07:32:38;5.97;;;2.97;;
11211;SDS011;5663;50.864;12.096;2023-07-31T07:35:28;8.07;;;2.87;;
11211;SDS011;5663;50.864;12.096;2023-07-31T07:37:57;4.87;;;2.70;;
11211;SDS011;5663;50.864;12.096;2023-07-31T07:40:47;6.73;;;2.90;;
11211;SDS011;5663;50.864;12.096;2023-07-31T07:43:16;6.13;;;2.73;;
11211;SDS011;5663;50.864;12.096;2023-07-31T07:45:44;5.90;;;2.73;;
11211;SDS011;5663;50.864;12.096;2023-07-31T07:48:12;4.77;;;3.00;;
11211;SDS011;5663;50.864;12.096;2023-07-31T07:50:41;4.03;;;2.87;;
11211;SDS011;5663;50.864;12.096;2023-07-31T07:53:12;5.67;;;3.07;;
11211;SDS011;5663;50.864;12.096;2023-07-31T07:55:44;6.23;;;2.83;;
11211;SDS011;5663;50.864;12.096;2023-07-31T07:58:15;6.97;;;2.73;;
11211;SDS011;5663;50.864;12.096;2023-07-31T08:00:48;7.20;;;2.30;;
11211;SDS011;5663;50.864;12.096;2023-07-31T08:03:15;4.77;;;2.50;;
11211;SDS011;5663;50.864;12.096;2023-07-31T08:05:46;3.80;;;2.37;;
11211;SDS011;5663;50.864;12.096;2023-07-31T08:08:15;6.27;;;2.77;;
11211;SDS011;5663;50.864;12.096;2023-07-31T08:10:43;4.27;;;2.47;;
11211;SDS011;5663;50.864;12.096;2023-07-31T08:13:18;3.10;;;2.57;;
11211;SDS011;5663;50.864;12.096;2023-07-31T08:16:21;5.80;;;2.80;;
11211;SDS011;5663;50.864;12.096;2023-07-31T08:18:49;5.53;;;3.10;;
11211;SDS011;5663;50.864;12.096;2023-07-31T08:21:28;3.43;;;2.50;;
11211;SDS011;5663;50.864;12.096;2023-07-31T08:23:57;6.67;;;2.90;;
11211;SDS011;5663;50.864;12.096;2023-07-31T08:26:26;5.67;;;2.30;;
11211;SDS011;5663;50.864;12.096;2023-07-31T08:28:54;5.40;;;2.97;;
11211;SDS011;5663;50.864;12.096;2023-07-31T08:34:14;4.67;;;2.47;;
11211;SDS011;5663;50.864;12.096;2023-07-31T08:43:42;7.53;;;2.83;;
11211;SDS011;5663;50.864;12.096;2023-07-31T08:52:38;8.30;;;2.67;;
11211;SDS011;5663;50.864;12.096;2023-07-31T08:55:45;5.63;;;2.70;;
11211;SDS011;5663;50.864;12.096;2023-07-31T08:58:25;3.30;;;2.60;;
11211;SDS011;5663;50.864;12.096;2023-07-31T09:04:07;4.67;;;2.60;;
11211;SDS011;5663;50.864;12.096;2023-07-31T09:06:42;5.70;;;2.80;;
11211;SDS011;5663;50.864;12.096;2023-07-31T09:09:42;3.53;;;2.30;;
11211;SDS011;5663;50.864;12.096;2023-07-31T09:12:51;5.10;;;3.00;;
11211;SDS011;5663;50.864;12.096;2023-07-31T09:15:40;5.17;;;2.30;;
11211;SDS011;5663;50.864;12.096;2023-07-31T09:18:35;9.17;;;2.90;;
11211;SDS011;5663;50.864;12.096;2023-07-31T09:21:49;3.00;;;2.33;;
11211;SDS011;5663;50.864;12.096;2023-07-31T09:24:40;4.83;;;2.60;;
11211;SDS011;5663;50.864;12.096;2023-07-31T09:27:20;4.50;;;2.20;;
11211;SDS011;5663;50.864;12.096;2023-07-31T09:30:22;3.43;;;2.40;;
11211;SDS011;5663;50.864;12.096;2023-07-31T09:33:55;3.63;;;2.47;;
11211;SDS011;5663;50.864;12.096;2023-07-31T09:40:13;4.10;;;2.47;;
11211;SDS011;5663;50.864;12.096;2023-07-31T09:43:31;4.60;;;2.70;;
11211;SDS011;5663;50.864;12.096;2023-07-31T09:49:45;3.50;;;2.13;;
11211;SDS011;5663;50.864;12.096;2023-07-31T09:53:05;3.30;;;2.10;;
11211;SDS011;5663;50.864;12.096;2023-07-31T09:55:40;4.18;;;2.25;;
11211;SDS011;5663;50.864;12.096;2023-07-31T09:58:12;4.37;;;2.60;;
11211;SDS011;5663;50.864;12.096;2023-07-31T10:00:42;3.83;;;2.40;;
11211;SDS011;5663;50.864;12.096;2023-07-31T10:03:32;5.20;;;2.73;;
11211;SDS011;5663;50.864;12.096;2023-07-31T10:06:15;4.27;;;2.70;;
11211;SDS011;5663;50.864;12.096;2023-07-31T10:08:50;3.53;;;2.55;;
11211;SDS011;5663;50.864;12.096;2023-07-31T10:11:24;3.35;;;2.45;;
11211;SDS011;5663;50.864;12.096;2023-07-31T10:17:26;3.03;;;2.08;;
11211;SDS011;5663;50.864;12.096;2023-07-31T10:25:45;3.38;;;2.30;;
11211;SDS011;5663;50.864;12.096;2023-07-31T10:28:17;5.80;;;2.85;;
11211;SDS011;5663;50.864;12.096;2023-07-31T10:43:05;5.85;;;2.80;;
11211;SDS011;5663;50.864;12.096;2023-07-31T10:45:58;6.22;;;2.70;;
11211;SDS011;5663;50.864;12.096;2023-07-31T10:48:45;5.25;;;2.50;;
11211;SDS011;5663;50.864;12.096;2023-07-31T10:51:20;5.75;;;2.80;;
11211;SDS011;5663;50.864;12.096;2023-07-31T11:00:17;4.63;;;2.50;;
11211;SDS011;5663;50.864;12.096;2023-07-31T11:03:03;3.08;;;2.50;;
11211;SDS011;5663;50.864;12.096;2023-07-31T11:06:04;8.18;;;2.60;;
11211;SDS011;5663;50.864;12.096;2023-07-31T11:09:11;4.57;;;2.40;;
11211;SDS011;5663;50.864;12.096;2023-07-31T11:12:29;4.05;;;2.78;;
11211;SDS011;5663;50.864;12.096;2023-07-31T11:56:34;5.88;;;2.78;;
11211;SDS011;5663;50.864;12.096;2023-07-31T12:02:17;8.13;;;2.80;;
11211;SDS011;5663;50.864;12.096;2023-07-31T15:08:47;4.82;;;2.47;;
11211;SDS011;5663;50.864;12.096;2023-07-31T15:14:49;3.75;;;2.50;;
11211;SDS011;5663;50.864;12.096;2023-07-31T15:17:33;4.95;;;3.00;;
11211;SDS011;5663;50.864;12.096;2023-07-31T15:20:27;5.40;;;2.53;;
11211;SDS011;5663;50.864;12.096;2023-07-31T15:36:35;3.05;;;2.20;;
11211;SDS011;5663;50.864;12.096;2023-07-31T15:39:37;5.38;;;3.10;;
11211;SDS011;5663;50.864;12.096;2023-07-31T15:43:21;4.47;;;2.70;;
11211;SDS011;5663;50.864;12.096;2023-07-31T16:17:39;8.13;;;3.05;;
11211;SDS011;5663;50.864;12.096;2023-07-31T16:41:06;6.07;;;3.05;;
11211;SDS011;5663;50.864;12.096;2023-07-31T16:43:56;5.28;;;2.90;;
11211;SDS011;5663;50.864;12.096;2023-07-31T16:46:52;5.20;;;2.65;;
11211;SDS011;5663;50.864;12.096;2023-07-31T16:53:46;3.63;;;2.20;;
11211;SDS011;5663;50.864;12.096;2023-07-31T16:56:22;4.18;;;2.85;;
11211;SDS011;5663;50.864;12.096;2023-07-31T16:59:19;5.32;;;2.90;;
11211;SDS011;5663;50.864;12.096;2023-07-31T17:02:17;5.13;;;2.58;;
11211;SDS011;5663;50.864;12.096;2023-07-31T17:05:44;5.93;;;3.10;;
11211;SDS011;5663;50.864;12.096;2023-07-31T18:38:02;7.15;;;3.55;;
11211;SDS011;5663;50.864;12.096;2023-07-31T18:44:10;6.28;;;3.05;;
11211;SDS011;5663;50.864;12.096;2023-07-31T18:47:43;6.32;;;3.13;;
11211;SDS011;5663;50.864;12.096;2023-07-31T18:50:39;5.60;;;3.30;;
11211;SDS011;5663;50.864;12.096;2023-07-31T18:53:36;4.65;;;2.92;;
